Time;durP1;ratioP1;P1;durP2;ratioP2;P2;SDS_P1;SDS_P2;PMS_P1;PMS_P2;Temp;Humidity;BMP_temperature;BMP_pressure;BME280_temperature;BME280_humidity;BME280_pressure;Samples;Min_cycle;Max_cycle;Signal;HPM_P1;HPM_P2
2022/01/09 00:00:47;;;;;;;0.60;0.50;;;;;18.90;97744.00;;;;2083378;28;20212;-54
2022/01/09 00:01:47;;;;;;;0.60;0.50;;;;;18.90;97742.00;;;;2088455;28;20217;-54
2022/01/09 00:02:48;;;;;;;0.70;0.50;;;;;18.90;97740.00;;;;2088724;28;20217;-54
2022/01/09 00:03:48;;;;;;;0.87;0.50;;;;;18.90;97740.00;;;;2088334;28;20250;-55
2022/01/09 00:04:48;;;;;;;0.60;0.40;;;;;18.90;97735.00;;;;2087866;28;20228;-54
2022/01/09 00:05:48;;;;;;;0.60;0.40;;;;;18.90;97740.00;;;;2081852;28;20337;-53
2022/01/09 00:06:49;;;;;;;0.70;0.50;;;;;18.90;97725.00;;;;2088336;28;20220;-54
2022/01/09 00:07:49;;;;;;;0.60;0.50;;;;;18.90;97730.00;;;;2088427;28;20261;-54
2022/01/09 00:08:50;;;;;;;0.60;0.40;;;;;18.90;97728.00;;;;2087733;28;20221;-54
2022/01/09 00:09:50;;;;;;;0.90;0.60;;;;;18.90;97730.00;;;;2087752;28;20228;-54
2022/01/09 00:10:51;;;;;;;0.70;0.50;;;;;18.90;97723.00;;;;2088123;28;20221;-54
2022/01/09 00:11:51;;;;;;;1.00;0.50;;;;;18.90;97720.00;;;;2088268;28;20220;-55
2022/01/09 00:12:52;;;;;;;0.60;0.40;;;;;18.90;97716.00;;;;2088484;28;20237;-54
2022/01/09 00:13:53;;;;;;;0.60;0.40;;;;;18.90;97723.00;;;;2088481;28;20216;-55
2022/01/09 00:14:53;;;;;;;0.60;0.60;;;;;18.90;97715.00;;;;2088414;28;20323;-54
2022/01/09 00:15:54;;;;;;;0.80;0.50;;;;;18.90;97718.00;;;;2088472;28;20254;-55
2022/01/09 00:16:54;;;;;;;0.70;0.60;;;;;18.90;97714.00;;;;2088260;28;20209;-55
2022/01/09 00:17:54;;;;;;;0.57;0.43;;;;;18.90;97726.00;;;;2088813;28;20215;-54
2022/01/09 00:18:55;;;;;;;0.70;0.50;;;;;18.90;97706.00;;;;2088443;28;20220;-55
2022/01/09 00:19:55;;;;;;;0.60;0.50;;;;;18.90;97716.00;;;;2088329;28;20699;-54
2022/01/09 00:20:55;;;;;;;0.70;0.60;;;;;18.90;97713.00;;;;2087998;28;20209;-54
2022/01/09 00:21:56;;;;;;;0.70;0.50;;;;;18.90;97702.00;;;;2088292;28;20228;-54
2022/01/09 00:22:56;;;;;;;0.70;0.53;;;;;18.90;97699.00;;;;2079577;28;20209;-55
2022/01/09 00:23:56;;;;;;;0.60;0.40;;;;;18.90;97708.00;;;;2071215;28;20271;-54
2022/01/09 00:24:57;;;;;;;0.77;0.60;;;;;18.90;97699.00;;;;2087630;28;20240;-55
2022/01/09 00:25:57;;;;;;;0.73;0.50;;;;;18.90;97705.00;;;;2088453;28;20201;-53
2022/01/09 00:26:57;;;;;;;0.83;0.63;;;;;18.90;97709.00;;;;2088301;28;20212;-55
2022/01/09 00:27:58;;;;;;;0.70;0.40;;;;;18.90;97703.00;;;;2086249;28;20220;-54
2022/01/09 00:28:58;;;;;;;0.77;0.40;;;;;18.90;97703.00;;;;2088421;28;20212;-55
2022/01/09 00:29:59;;;;;;;0.70;0.50;;;;;18.90;97701.00;;;;2088246;28;20236;-55
2022/01/09 00:30:59;;;;;;;0.73;0.47;;;;;18.90;97699.00;;;;2087995;28;20571;-54
2022/01/09 00:31:59;;;;;;;0.60;0.50;;;;;18.90;97712.00;;;;2088183;28;20212;-54
2022/01/09 00:33:00;;;;;;;0.70;0.50;;;;;18.80;97703.00;;;;2087828;28;20213;-54
2022/01/09 00:34:00;;;;;;;0.60;0.50;;;;;18.80;97702.00;;;;2088348;28;20219;-54
2022/01/09 00:35:00;;;;;;;1.80;0.60;;;;;18.80;97696.00;;;;2088359;28;20248;-54
2022/01/09 00:36:01;;;;;;;0.80;0.50;;;;;18.80;97697.00;;;;2088597;28;20209;-54
2022/01/09 00:37:01;;;;;;;0.60;0.40;;;;;18.80;97697.00;;;;2088281;28;20217;-54
2022/01/09 00:38:01;;;;;;;0.60;0.40;;;;;18.80;97686.00;;;;2084555;28;20698;-54
2022/01/09 00:39:02;;;;;;;0.60;0.40;;;;;18.80;97691.00;;;;2088213;28;20726;-54
2022/01/09 00:40:04;;;;;;;0.83;0.40;;;;;18.80;97689.00;;;;2088297;28;20705;-54
2022/01/09 00:41:04;;;;;;;0.60;0.40;;;;;18.80;97688.00;;;;2086961;28;20970;-54
2022/01/09 00:42:05;;;;;;;0.70;0.50;;;;;18.80;97689.00;;;;2087436;28;20378;-54
2022/01/09 00:43:09;;;;;;;0.70;0.43;;;;;18.80;97685.00;;;;2088237;28;20209;-54
2022/01/09 00:44:09;;;;;;;0.90;0.73;;;;;18.80;97679.00;;;;2088412;28;20411;-54
2022/01/09 00:45:10;;;;;;;0.70;0.40;;;;;18.80;97693.00;;;;2088249;28;20338;-54
2022/01/09 00:46:10;;;;;;;0.60;0.40;;;;;18.80;97691.00;;;;2087528;28;20211;-54
2022/01/09 00:47:11;;;;;;;0.60;0.40;;;;;18.80;97691.00;;;;2087710;28;20452;-54
2022/01/09 00:48:12;;;;;;;0.67;0.50;;;;;18.80;97685.00;;;;2088203;28;20205;-54
2022/01/09 00:49:12;;;;;;;0.60;0.43;;;;;18.80;97690.00;;;;2087680;28;20232;-54
2022/01/09 00:50:13;;;;;;;1.03;0.77;;;;;18.80;97692.00;;;;2088024;28;20537;-54
2022/01/09 00:51:13;;;;;;;0.60;0.40;;;;;18.80;97689.00;;;;2088017;28;20217;-54
2022/01/09 00:52:13;;;;;;;0.60;0.40;;;;;18.80;97687.00;;;;2088255;28;20216;-54
2022/01/09 00:53:14;;;;;;;0.67;0.50;;;;;18.80;97696.00;;;;2088126;28;20213;-54
2022/01/09 00:54:14;;;;;;;0.60;0.43;;;;;18.80;97688.00;;;;2088250;28;20205;-54
2022/01/09 00:55:14;;;;;;;0.60;0.40;;;;;18.80;97683.00;;;;2088208;28;20208;-54
2022/01/09 00:56:15;;;;;;;0.60;0.40;;;;;18.80;97697.00;;;;2087577;28;20208;-54
2022/01/09 00:57:15;;;;;;;0.70;0.40;;;;;18.80;97682.00;;;;2087756;28;20209;-54
2022/01/09 00:58:15;;;;;;;0.60;0.50;;;;;18.80;97686.00;;;;2087624;28;20300;-54
2022/01/09 00:59:16;;;;;;;0.70;0.40;;;;;18.80;97688.00;;;;2087935;28;20618;-54
2022/01/09 01:00:16;;;;;;;0.60;0.40;;;;;18.80;97684.00;;;;2087443;28;20219;-54
2022/01/09 01:01:16;;;;;;;0.60;0.50;;;;;18.80;97701.00;;;;2087835;28;20209;-54
2022/01/09 01:02:17;;;;;;;0.70;0.50;;;;;18.80;97689.00;;;;2087417;28;20600;-54
2022/01/09 01:03:17;;;;;;;0.60;0.40;;;;;18.80;97686.00;;;;2089032;28;20692;-54
2022/01/09 01:04:17;;;;;;;0.63;0.40;;;;;18.80;97687.00;;;;2088157;28;20243;-54
2022/01/09 01:05:18;;;;;;;0.60;0.50;;;;;18.80;97691.00;;;;2087887;28;20349;-54
2022/01/09 01:06:18;;;;;;;0.63;0.40;;;;;18.80;97678.00;;;;2087645;28;20216;-54
2022/01/09 01:07:19;;;;;;;0.60;0.40;;;;;18.80;97685.00;;;;2083955;28;20239;-54
2022/01/09 01:08:20;;;;;;;0.68;0.40;;;;;18.80;97681.00;;;;2087411;28;20621;-54
2022/01/09 01:09:30;;;;;;;0.63;0.40;;;;;18.80;97677.00;;;;2088269;28;20235;-54
2022/01/09 01:10:31;;;;;;;0.60;0.40;;;;;18.80;97680.00;;;;2073751;28;20303;-55
2022/01/09 01:11:31;;;;;;;0.67;0.50;;;;;18.80;97675.00;;;;2087226;28;20727;-55
2022/01/09 01:12:32;;;;;;;0.60;0.40;;;;;18.80;97675.00;;;;2086455;28;20209;-54
2022/01/09 01:13:32;;;;;;;0.60;0.40;;;;;18.80;97681.00;;;;2088168;28;20673;-55
2022/01/09 01:14:33;;;;;;;0.70;0.40;;;;;18.80;97681.00;;;;2088062;28;21159;-54
2022/01/09 01:15:33;;;;;;;0.50;0.30;;;;;18.80;97680.00;;;;2088361;28;20338;-54
2022/01/09 01:16:33;;;;;;;0.60;0.40;;;;;18.80;97678.00;;;;2087986;28;20239;-54
2022/01/09 01:17:35;;;;;;;0.70;0.50;;;;;18.80;97681.00;;;;2086775;28;20208;-54
2022/01/09 01:18:36;;;;;;;0.60;0.50;;;;;18.80;97674.00;;;;2083288;28;20228;-54
2022/01/09 01:19:36;;;;;;;0.90;0.40;;;;;18.80;97675.00;;;;2088241;28;20236;-54
2022/01/09 01:20:36;;;;;;;1.20;0.40;;;;;18.80;97676.00;;;;2087231;28;20211;-54
2022/01/09 01:21:37;;;;;;;0.60;0.40;;;;;18.80;97685.00;;;;2087225;28;20208;-54
2022/01/09 01:22:38;;;;;;;1.47;0.50;;;;;18.80;97674.00;;;;2088136;28;20270;-54
2022/01/09 01:23:39;;;;;;;0.70;0.40;;;;;18.80;97669.00;;;;2088289;28;20219;-54
2022/01/09 01:24:40;;;;;;;0.60;0.40;;;;;18.80;97680.00;;;;2088146;28;20209;-54
2022/01/09 01:25:41;;;;;;;0.60;0.40;;;;;18.80;97671.00;;;;2088113;28;20336;-54
2022/01/09 01:26:41;;;;;;;0.60;0.40;;;;;18.80;97678.00;;;;2084288;28;20451;-54
2022/01/09 01:27:41;;;;;;;0.70;0.40;;;;;18.80;97676.00;;;;2087436;28;20244;-54
2022/01/09 01:28:42;;;;;;;0.60;0.40;;;;;18.80;97680.00;;;;2087833;28;20208;-54
2022/01/09 01:29:42;;;;;;;0.70;0.40;;;;;18.80;97683.00;;;;2087093;28;20224;-54
2022/01/09 01:30:42;;;;;;;0.60;0.40;;;;;18.80;97684.00;;;;2096011;28;20213;-54
2022/01/09 01:31:43;;;;;;;0.70;0.40;;;;;18.80;97686.00;;;;2091789;28;20227;-54
2022/01/09 01:32:43;;;;;;;0.50;0.33;;;;;18.80;97677.00;;;;2088008;28;20212;-54
2022/01/09 01:33:43;;;;;;;0.77;0.40;;;;;18.80;97678.00;;;;2088003;28;20227;-55
2022/01/09 01:34:44;;;;;;;0.60;0.40;;;;;18.80;97694.00;;;;2087951;28;20221;-54
2022/01/09 01:35:44;;;;;;;0.80;0.40;;;;;18.80;97681.00;;;;2087972;28;20267;-54
2022/01/09 01:36:44;;;;;;;0.60;0.40;;;;;18.80;97682.00;;;;2087964;28;20221;-54
2022/01/09 01:37:45;;;;;;;0.80;0.50;;;;;18.80;97687.00;;;;2088145;28;20223;-54
2022/01/09 01:38:45;;;;;;;0.60;0.40;;;;;18.80;97683.00;;;;2087923;28;20216;-54
2022/01/09 01:39:45;;;;;;;0.70;0.40;;;;;18.80;97688.00;;;;2087991;28;20236;-54
2022/01/09 01:40:45;;;;;;;0.60;0.40;;;;;18.80;97692.00;;;;2087862;28;20213;-54
2022/01/09 01:41:46;;;;;;;0.53;0.40;;;;;18.80;97700.00;;;;2087949;28;20271;-54
2022/01/09 01:42:46;;;;;;;0.70;0.50;;;;;18.70;97701.00;;;;2087986;28;20236;-54
2022/01/09 01:43:46;;;;;;;0.60;0.40;;;;;18.80;97701.00;;;;2087932;28;20274;-54
2022/01/09 01:44:48;;;;;;;0.60;0.40;;;;;18.80;97704.00;;;;2087982;28;20228;-54
2022/01/09 01:45:48;;;;;;;0.60;0.30;;;;;18.80;97705.00;;;;2088055;28;20263;-54
2022/01/09 01:46:49;;;;;;;0.87;0.50;;;;;18.70;97705.00;;;;2088002;28;20266;-54
2022/01/09 01:47:50;;;;;;;0.60;0.43;;;;;18.70;97709.00;;;;2087840;28;20274;-54
2022/01/09 01:48:50;;;;;;;0.60;0.40;;;;;18.70;97704.00;;;;2087837;28;20217;-54
2022/01/09 01:49:50;;;;;;;0.73;0.40;;;;;18.70;97697.00;;;;2088005;28;20216;-54
2022/01/09 01:50:51;;;;;;;0.50;0.40;;;;;18.70;97701.00;;;;2087639;28;20213;-54
2022/01/09 01:51:51;;;;;;;0.60;0.40;;;;;18.70;97707.00;;;;2087311;28;20212;-54
2022/01/09 01:52:53;;;;;;;0.60;0.40;;;;;18.70;97702.00;;;;2087098;28;20696;-53
2022/01/09 01:53:55;;;;;;;0.60;0.40;;;;;18.70;97710.00;;;;2087212;28;20212;-53
2022/01/09 01:54:56;;;;;;;0.60;0.40;;;;;18.70;97710.00;;;;2079390;28;20644;-54
2022/01/09 01:55:59;;;;;;;0.60;0.40;;;;;18.70;97720.00;;;;2087390;28;20231;-54
2022/01/09 01:57:00;;;;;;;0.50;0.40;;;;;18.70;97717.00;;;;2087637;28;20221;-54
2022/01/09 01:58:00;;;;;;;0.60;0.40;;;;;18.70;97713.00;;;;2088189;28;20217;-54
2022/01/09 01:59:01;;;;;;;0.67;0.40;;;;;18.70;97719.00;;;;2078986;28;20588;-54
2022/01/09 02:00:03;;;;;;;0.60;0.40;;;;;18.70;97719.00;;;;2075529;28;20750;-54
2022/01/09 02:01:03;;;;;;;0.68;0.40;;;;;18.70;97715.00;;;;2087408;28;20680;-54
2022/01/09 02:02:04;;;;;;;0.67;0.40;;;;;18.70;97725.00;;;;2087849;28;20231;-54
2022/01/09 02:03:04;;;;;;;0.60;0.40;;;;;18.70;97716.00;;;;2087988;28;20224;-54
2022/01/09 02:04:05;;;;;;;0.70;0.30;;;;;18.70;97720.00;;;;2087076;28;20213;-54
2022/01/09 02:05:06;;;;;;;0.60;0.40;;;;;18.70;97717.00;;;;2086979;28;20275;-54
2022/01/09 02:06:06;;;;;;;1.00;0.50;;;;;18.70;97710.00;;;;2087700;28;21030;-54
2022/01/09 02:07:07;;;;;;;0.70;0.40;;;;;18.70;97728.00;;;;2086916;28;20813;-54
2022/01/09 02:08:07;;;;;;;0.60;0.40;;;;;18.70;97732.00;;;;2086887;28;20624;-54
2022/01/09 02:09:07;;;;;;;0.60;0.40;;;;;18.80;97730.00;;;;2086765;28;23462;-57
2022/01/09 02:10:08;;;;;;;0.60;0.30;;;;;18.70;97730.00;;;;2087819;28;20212;-55
2022/01/09 02:11:12;;;;;;;0.60;0.40;;;;;18.70;97734.00;;;;2087718;28;20209;-54
2022/01/09 02:12:12;;;;;;;0.60;0.40;;;;;18.70;97738.00;;;;2083665;28;20209;-54
2022/01/09 02:13:12;;;;;;;0.60;0.30;;;;;18.70;97739.00;;;;2087325;28;20287;-54
2022/01/09 02:14:13;;;;;;;0.50;0.30;;;;;18.70;97737.00;;;;2080820;28;20213;-54
2022/01/09 02:15:32;;;;;;;0.60;0.40;;;;;18.70;97745.00;;;;2087875;28;20518;-53
2022/01/09 02:16:32;;;;;;;0.60;0.40;;;;;18.70;97741.00;;;;2086652;28;20220;-54
2022/01/09 02:17:32;;;;;;;0.50;0.30;;;;;18.70;97741.00;;;;2087714;28;20672;-54
2022/01/09 02:18:33;;;;;;;0.60;0.30;;;;;18.70;97746.00;;;;2087776;28;20213;-54
2022/01/09 02:19:33;;;;;;;0.70;0.40;;;;;18.70;97751.00;;;;2086320;28;20208;-54
2022/01/09 02:20:33;;;;;;;0.60;0.40;;;;;18.70;97750.00;;;;2087810;28;20240;-54
2022/01/09 02:21:34;;;;;;;0.60;0.40;;;;;18.70;97750.00;;;;2089538;28;20256;-54
2022/01/09 02:22:35;;;;;;;0.80;0.40;;;;;18.70;97758.00;;;;2089231;28;20240;-54
2022/01/09 02:23:37;;;;;;;0.60;0.40;;;;;18.70;97772.00;;;;2089487;28;20209;-54
2022/01/09 02:24:37;;;;;;;0.60;0.45;;;;;18.70;97772.00;;;;2089260;28;20212;-54
2022/01/09 02:25:38;;;;;;;0.60;0.40;;;;;18.70;97772.00;;;;2089171;28;20212;-54
2022/01/09 02:26:39;;;;;;;0.65;0.40;;;;;18.70;97784.00;;;;2089301;28;20216;-54
2022/01/09 02:27:39;;;;;;;0.60;0.30;;;;;18.70;97783.00;;;;2088947;28;20212;-54
2022/01/09 02:28:40;;;;;;;0.60;0.30;;;;;18.70;97782.00;;;;2089591;28;20243;-54
2022/01/09 02:29:40;;;;;;;0.60;0.40;;;;;18.70;97784.00;;;;2088518;28;20695;-56
2022/01/09 02:30:41;;;;;;;0.60;0.40;;;;;18.70;97791.00;;;;2089074;28;20879;-55
2022/01/09 02:31:42;;;;;;;0.57;0.30;;;;;18.70;97795.00;;;;2089325;28;20619;-55
2022/01/09 02:32:43;;;;;;;0.60;0.35;;;;;18.70;97799.00;;;;2088548;28;20720;-55
2022/01/09 02:33:43;;;;;;;0.60;0.40;;;;;18.70;97805.00;;;;2088488;28;20232;-54
2022/01/09 02:34:47;;;;;;;0.77;0.50;;;;;18.70;97807.00;;;;2088265;28;20594;-55
2022/01/09 02:35:51;;;;;;;0.73;0.30;;;;;18.70;97814.00;;;;2088500;28;20235;-54
2022/01/09 02:36:52;;;;;;;0.60;0.40;;;;;18.70;97812.00;;;;2089153;28;20213;-54
2022/01/09 02:37:52;;;;;;;0.57;0.40;;;;;18.70;97812.00;;;;2089182;28;20220;-54
2022/01/09 02:38:52;;;;;;;0.60;0.30;;;;;18.70;97816.00;;;;2088987;28;20252;-54
2022/01/09 02:39:53;;;;;;;0.60;0.30;;;;;18.70;97818.00;;;;2089354;28;20248;-53
2022/01/09 02:40:54;;;;;;;0.60;0.33;;;;;18.70;97819.00;;;;2088864;28;20221;-54
2022/01/09 02:41:54;;;;;;;0.60;0.40;;;;;18.70;97820.00;;;;2089217;28;20228;-54
2022/01/09 02:42:54;;;;;;;0.60;0.30;;;;;18.70;97823.00;;;;2089118;28;20700;-54
2022/01/09 02:43:55;;;;;;;0.60;0.40;;;;;18.70;97832.00;;;;2089181;28;20687;-54
2022/01/09 02:44:56;;;;;;;0.50;0.40;;;;;18.70;97834.00;;;;2089308;28;20869;-54
2022/01/09 02:46:30;;;;;;;0.80;0.40;;;;;18.70;97832.00;;;;2088948;28;20205;-54
2022/01/09 02:47:17;;;;;;;0.63;0.47;;;;;18.70;97835.00;;;;2088593;28;20287;-54
2022/01/09 02:48:17;;;;;;;0.70;0.40;;;;;18.70;97834.00;;;;2089064;28;20209;-54
2022/01/09 02:49:18;;;;;;;0.73;0.40;;;;;18.70;97841.00;;;;2089215;28;20204;-54
2022/01/09 02:51:25;;;;;;;0.60;0.40;;;;;18.70;97844.00;;;;2085884;28;20255;-54
2022/01/09 02:53:33;;;;;;;0.65;0.40;;;;;18.70;97855.00;;;;2089150;28;20212;-54
2022/01/09 02:55:52;;;;;;;0.70;0.52;;;;;18.70;97855.00;;;;2088339;28;20205;-54
2022/01/09 02:56:52;;;;;;;0.60;0.40;;;;;18.70;97860.00;;;;2088782;28;20224;-54
2022/01/09 02:57:59;;;;;;;0.60;0.50;;;;;18.70;97852.00;;;;2089095;28;20227;-54
2022/01/09 02:58:59;;;;;;;0.50;0.30;;;;;18.60;97854.00;;;;2088418;28;20249;-54
2022/01/09 03:00:00;;;;;;;0.63;0.40;;;;;18.70;97857.00;;;;2088308;28;20221;-54
2022/01/09 03:01:00;;;;;;;0.70;0.43;;;;;18.70;97861.00;;;;2088303;28;20296;-54
2022/01/09 03:02:01;;;;;;;0.60;0.30;;;;;18.70;97867.00;;;;2088757;28;20259;-54
2022/01/09 03:03:01;;;;;;;1.00;0.40;;;;;18.70;97866.00;;;;2089058;28;20213;-54
2022/01/09 03:04:01;;;;;;;0.50;0.40;;;;;18.70;97865.00;;;;2088274;28;20222;-54
2022/01/09 03:05:02;;;;;;;1.27;0.40;;;;;18.60;97877.00;;;;2088751;28;20213;-54
2022/01/09 03:06:03;;;;;;;0.50;0.30;;;;;18.60;97872.00;;;;2088454;28;20247;-54
2022/01/09 03:07:03;;;;;;;0.60;0.40;;;;;18.60;97876.00;;;;2088356;28;20638;-54
2022/01/09 03:08:04;;;;;;;0.60;0.40;;;;;18.70;97874.00;;;;2088621;28;20263;-54
2022/01/09 03:09:06;;;;;;;0.90;0.50;;;;;18.60;97873.00;;;;2088494;28;20212;-54
2022/01/09 03:10:07;;;;;;;0.70;0.40;;;;;18.60;97875.00;;;;2086956;28;20247;-54
2022/01/09 03:11:07;;;;;;;0.90;0.40;;;;;18.70;97875.00;;;;2088766;28;20262;-54
2022/01/09 03:12:10;;;;;;;0.60;0.40;;;;;18.70;97879.00;;;;2089093;28;20209;-54
2022/01/09 03:13:11;;;;;;;1.00;0.40;;;;;18.70;97882.00;;;;2088978;28;20266;-54
2022/01/09 03:14:11;;;;;;;0.60;0.40;;;;;18.70;97881.00;;;;2089297;28;20212;-54
2022/01/09 03:15:12;;;;;;;0.63;0.30;;;;;18.60;97888.00;;;;2092100;28;20244;-54
2022/01/09 03:16:12;;;;;;;0.60;0.40;;;;;18.70;97888.00;;;;2088964;28;20220;-54
2022/01/09 03:17:12;;;;;;;1.47;0.43;;;;;18.70;97894.00;;;;2088354;28;20221;-54
2022/01/09 03:18:12;;;;;;;0.60;0.40;;;;;18.60;97885.00;;;;2088406;28;20694;-54
2022/01/09 03:19:13;;;;;;;0.90;0.57;;;;;18.70;97904.00;;;;2088059;28;20698;-53
2022/01/09 03:20:18;;;;;;;0.60;0.40;;;;;18.70;97904.00;;;;2088155;28;20699;-53
2022/01/09 03:21:18;;;;;;;0.85;0.32;;;;;18.70;97908.00;;;;2088418;28;20263;-55
2022/01/09 03:22:18;;;;;;;0.53;0.30;;;;;18.70;97926.00;;;;2088653;28;20232;-55
2022/01/09 03:23:19;;;;;;;0.60;0.40;;;;;18.60;97915.00;;;;2088788;28;20208;-54
2022/01/09 03:24:19;;;;;;;0.60;0.40;;;;;18.60;97916.00;;;;2088800;28;20197;-55
2022/01/09 03:25:19;;;;;;;0.60;0.40;;;;;18.60;97932.00;;;;2088804;28;20201;-54
2022/01/09 03:26:20;;;;;;;0.60;0.40;;;;;18.60;97937.00;;;;2088891;28;20395;-54
2022/01/09 03:27:20;;;;;;;0.60;0.50;;;;;18.60;97935.00;;;;2088589;28;20603;-54
2022/01/09 03:28:20;;;;;;;0.60;0.30;;;;;18.60;97949.00;;;;2088694;28;20571;-54
2022/01/09 03:29:21;;;;;;;0.60;0.40;;;;;18.70;97950.00;;;;2088059;28;20197;-54
2022/01/09 03:30:21;;;;;;;0.70;0.40;;;;;18.70;97946.00;;;;2087610;28;20286;-55
2022/01/09 03:31:21;;;;;;;0.60;0.40;;;;;18.70;97948.00;;;;2087785;28;20217;-54
2022/01/09 03:32:22;;;;;;;0.50;0.30;;;;;18.60;97947.00;;;;2088687;28;20243;-54
2022/01/09 03:33:22;;;;;;;0.60;0.37;;;;;18.60;97956.00;;;;2088819;28;20732;-53
2022/01/09 03:34:22;;;;;;;0.60;0.40;;;;;18.50;97954.00;;;;2088764;28;20710;-54
2022/01/09 03:35:24;;;;;;;0.63;0.40;;;;;18.70;97958.00;;;;2089001;28;20240;-54
2022/01/09 03:36:24;;;;;;;0.60;0.50;;;;;18.60;97969.00;;;;2087775;28;20216;-54
2022/01/09 03:37:24;;;;;;;0.60;0.30;;;;;18.60;97966.00;;;;2088914;28;20220;-55
2022/01/09 03:38:25;;;;;;;0.70;0.43;;;;;18.60;97970.00;;;;2088488;28;20224;-54
2022/01/09 03:39:25;;;;;;;0.70;0.40;;;;;18.60;97960.00;;;;2088497;28;20213;-54
2022/01/09 03:40:26;;;;;;;0.60;0.40;;;;;18.60;97957.00;;;;2088470;28;20211;-54
2022/01/09 03:41:27;;;;;;;0.70;0.50;;;;;18.60;97977.00;;;;2088775;28;20339;-54
2022/01/09 03:42:27;;;;;;;0.60;0.40;;;;;18.60;97983.00;;;;2087060;28;20270;-53
2022/01/09 03:43:27;;;;;;;0.60;0.40;;;;;18.60;97975.00;;;;2088722;28;20213;-54
2022/01/09 03:44:28;;;;;;;0.60;0.40;;;;;18.70;97986.00;;;;2088936;28;20248;-54
2022/01/09 03:45:29;;;;;;;0.60;0.40;;;;;18.60;97974.00;;;;2089065;28;20213;-55
2022/01/09 03:46:29;;;;;;;0.80;0.40;;;;;18.60;97991.00;;;;2088848;28;20216;-54
2022/01/09 03:47:29;;;;;;;0.60;0.30;;;;;18.60;97988.00;;;;2088777;28;20546;-54
2022/01/09 03:48:31;;;;;;;0.60;0.40;;;;;18.60;97995.00;;;;2089048;28;20270;-54
2022/01/09 03:49:32;;;;;;;0.60;0.40;;;;;18.60;98000.00;;;;2088842;28;20251;-54
2022/01/09 03:50:33;;;;;;;0.70;0.40;;;;;18.60;97995.00;;;;2088690;28;20212;-54
2022/01/09 03:51:36;;;;;;;0.60;0.40;;;;;18.60;98002.00;;;;2089274;28;20201;-54
2022/01/09 03:52:38;;;;;;;0.60;0.40;;;;;18.60;97999.00;;;;2089107;28;20668;-54
2022/01/09 03:53:39;;;;;;;0.88;0.40;;;;;18.60;98001.00;;;;2089017;28;20205;-54
2022/01/09 03:54:40;;;;;;;0.60;0.40;;;;;18.60;98000.00;;;;2088547;28;20221;-54
2022/01/09 03:55:40;;;;;;;0.60;0.40;;;;;18.60;98005.00;;;;2088819;28;20479;-54
2022/01/09 03:56:40;;;;;;;1.17;0.40;;;;;18.60;98004.00;;;;2088290;28;20221;-54
2022/01/09 03:57:41;;;;;;;0.60;0.40;;;;;18.60;98002.00;;;;2089038;28;20263;-54
2022/01/09 03:58:41;;;;;;;0.60;0.40;;;;;18.60;98012.00;;;;2088620;28;20375;-54
2022/01/09 03:59:41;;;;;;;0.60;0.40;;;;;18.60;98016.00;;;;2088743;28;20244;-54
2022/01/09 04:00:42;;;;;;;0.63;0.40;;;;;18.60;98021.00;;;;2088446;28;20208;-53
2022/01/09 04:01:42;;;;;;;0.60;0.50;;;;;18.60;98027.00;;;;2088722;28;20302;-54
2022/01/09 04:02:42;;;;;;;0.80;0.40;;;;;18.60;98035.00;;;;2088659;28;20228;-54
2022/01/09 04:03:43;;;;;;;0.60;0.47;;;;;18.60;98040.00;;;;2088791;28;20216;-54
2022/01/09 04:04:43;;;;;;;0.67;0.33;;;;;18.60;98034.00;;;;2089064;28;20587;-54
2022/01/09 04:05:43;;;;;;;0.70;0.40;;;;;18.60;98045.00;;;;2088493;28;20866;-54
2022/01/09 04:06:49;;;;;;;0.60;0.40;;;;;18.60;98045.00;;;;2088634;28;20700;-54
2022/01/09 04:07:50;;;;;;;1.15;0.50;;;;;18.60;98044.00;;;;2088756;28;20910;-54
2022/01/09 04:08:52;;;;;;;0.70;0.40;;;;;18.60;98048.00;;;;2088556;28;20299;-54
2022/01/09 04:09:52;;;;;;;0.60;0.40;;;;;18.60;98051.00;;;;2091997;28;20219;-54
2022/01/09 04:10:52;;;;;;;0.97;0.50;;;;;18.60;98039.00;;;;2091539;28;20246;-54
2022/01/09 04:11:56;;;;;;;0.60;0.43;;;;;18.60;98047.00;;;;2089051;28;20229;-54
2022/01/09 04:13:00;;;;;;;0.75;0.40;;;;;18.60;98053.00;;;;2085004;28;20227;-55
2022/01/09 04:14:00;;;;;;;0.75;0.40;;;;;18.60;98055.00;;;;2089115;28;20583;-54
2022/01/09 04:15:05;;;;;;;0.60;0.40;;;;;18.60;98068.00;;;;2089195;28;20256;-54
2022/01/09 04:16:05;;;;;;;0.63;0.40;;;;;18.60;98047.00;;;;2088302;28;20217;-54
2022/01/09 04:17:09;;;;;;;1.00;0.50;;;;;18.60;98053.00;;;;2079908;28;20236;-54
2022/01/09 04:18:09;;;;;;;0.85;0.40;;;;;18.60;98056.00;;;;2088226;28;20233;-54
2022/01/09 04:19:12;;;;;;;0.70;0.40;;;;;18.60;98059.00;;;;2090613;28;20719;-54
2022/01/09 04:20:13;;;;;;;0.60;0.40;;;;;18.60;98074.00;;;;2089514;28;20307;-54
2022/01/09 04:21:13;;;;;;;0.80;0.40;;;;;18.60;98073.00;;;;2088726;28;20702;-54
2022/01/09 04:22:13;;;;;;;0.73;0.50;;;;;18.60;98080.00;;;;2089116;28;20227;-54
2022/01/09 04:23:15;;;;;;;0.60;0.40;;;;;18.60;98076.00;;;;2089279;28;20209;-54
2022/01/09 04:24:15;;;;;;;0.70;0.43;;;;;18.60;98107.00;;;;2088616;28;20219;-54
2022/01/09 04:25:15;;;;;;;0.60;0.30;;;;;18.60;98076.00;;;;2088694;28;20211;-54
2022/01/09 04:26:17;;;;;;;0.80;0.40;;;;;18.60;98093.00;;;;2088965;28;20723;-54
2022/01/09 04:27:18;;;;;;;0.80;0.50;;;;;18.60;98085.00;;;;2088587;28;20275;-54
2022/01/09 04:28:18;;;;;;;0.70;0.40;;;;;18.60;98091.00;;;;2088380;28;20278;-54
2022/01/09 04:29:18;;;;;;;1.07;0.40;;;;;18.60;98092.00;;;;2088444;28;20817;-54
2022/01/09 04:30:19;;;;;;;0.70;0.30;;;;;18.60;98096.00;;;;2088786;28;20861;-54
2022/01/09 04:31:19;;;;;;;0.80;0.50;;;;;18.60;98090.00;;;;2088803;28;20680;-54
2022/01/09 04:32:19;;;;;;;0.80;0.50;;;;;18.60;98094.00;;;;2089004;28;20322;-54
2022/01/09 04:33:20;;;;;;;1.30;0.57;;;;;18.60;98100.00;;;;2088965;28;20220;-54
2022/01/09 04:34:20;;;;;;;0.70;0.50;;;;;18.60;98097.00;;;;2089262;28;20251;-54
2022/01/09 04:35:20;;;;;;;0.60;0.30;;;;;18.60;98110.00;;;;2088922;28;20224;-54
2022/01/09 04:36:21;;;;;;;0.60;0.40;;;;;18.60;98115.00;;;;2088036;28;20217;-54
2022/01/09 04:37:21;;;;;;;0.73;0.40;;;;;18.60;98112.00;;;;2088138;28;20228;-54
2022/01/09 04:38:21;;;;;;;0.73;0.40;;;;;18.60;98121.00;;;;2087889;28;20221;-54
2022/01/09 04:39:22;;;;;;;0.87;0.40;;;;;18.60;98122.00;;;;2088879;28;20216;-54
2022/01/09 04:40:22;;;;;;;1.20;0.43;;;;;18.60;98129.00;;;;2088366;28;20213;-54
2022/01/09 04:41:23;;;;;;;0.67;0.40;;;;;18.60;98120.00;;;;2088297;28;20209;-54
2022/01/09 04:42:29;;;;;;;0.70;0.40;;;;;18.60;98128.00;;;;2088359;28;20791;-54
2022/01/09 04:43:30;;;;;;;0.60;0.40;;;;;18.60;98127.00;;;;2087535;28;20223;-57
2022/01/09 04:44:30;;;;;;;0.70;0.50;;;;;18.60;98140.00;;;;2093397;28;20223;-56
2022/01/09 04:45:31;;;;;;;1.53;0.50;;;;;18.60;98138.00;;;;2096600;28;20291;-53
2022/01/09 04:46:41;;;;;;;1.23;0.60;;;;;18.60;98139.00;;;;2091061;28;20228;-55
2022/01/09 04:47:45;;;;;;;0.60;0.50;;;;;18.40;98146.00;;;;2085683;28;20229;-54
2022/01/09 04:48:47;;;;;;;0.90;0.40;;;;;18.60;98149.00;;;;2087105;28;20209;-54
2022/01/09 04:49:49;;;;;;;0.60;0.40;;;;;18.60;98146.00;;;;2088182;28;20240;-54
2022/01/09 04:50:52;;;;;;;0.75;0.40;;;;;18.60;98163.00;;;;2087967;28;20209;-54
2022/01/09 04:51:53;;;;;;;0.60;0.40;;;;;18.60;98109.00;;;;2088445;28;20215;-54
2022/01/09 04:52:59;;;;;;;0.90;0.47;;;;;18.60;98154.00;;;;2088348;28;20209;-54
2022/01/09 04:53:59;;;;;;;0.80;0.40;;;;;18.60;98159.00;;;;2085279;28;20220;-54
2022/01/09 04:55:00;;;;;;;0.70;0.40;;;;;18.60;98166.00;;;;2088267;28;20209;-54
2022/01/09 04:56:01;;;;;;;0.60;0.40;;;;;18.60;98159.00;;;;2088037;28;20216;-54
2022/01/09 04:57:02;;;;;;;0.60;0.47;;;;;18.60;98157.00;;;;2087519;28;20220;-54
2022/01/09 04:58:02;;;;;;;0.82;0.60;;;;;18.60;98167.00;;;;2087559;28;20220;-54
2022/01/09 04:59:03;;;;;;;0.83;0.40;;;;;18.60;98160.00;;;;2087576;28;20208;-54
2022/01/09 05:00:05;;;;;;;1.40;0.57;;;;;18.60;98177.00;;;;2087405;28;20676;-54
2022/01/09 05:01:05;;;;;;;1.08;0.50;;;;;18.60;98172.00;;;;2087537;28;20227;-54
2022/01/09 05:02:06;;;;;;;1.00;0.50;;;;;18.60;98172.00;;;;2087743;28;20700;-54
2022/01/09 05:03:06;;;;;;;1.13;0.40;;;;;18.60;98179.00;;;;2088231;28;20700;-54
2022/01/09 05:04:07;;;;;;;0.97;0.50;;;;;18.60;98189.00;;;;2088212;28;20262;-54
2022/01/09 05:05:09;;;;;;;1.23;0.60;;;;;18.60;98191.00;;;;2088244;28;20448;-54
2022/01/09 05:06:09;;;;;;;0.70;0.40;;;;;18.60;98193.00;;;;2088270;28;20262;-54
2022/01/09 05:07:10;;;;;;;1.10;0.50;;;;;18.60;98193.00;;;;2088386;28;20290;-54
2022/01/09 05:08:10;;;;;;;1.10;0.50;;;;;18.60;98199.00;;;;2088197;28;20255;-54
2022/01/09 05:09:10;;;;;;;1.00;0.40;;;;;18.60;98198.00;;;;2087454;28;20695;-54